sensor_id;sensor_type;location;lat;lon;timestamp;pressure;altitude;pressure_sealevel;temperature;humidity
67029;BME280;53934;52.142;11.738;2022-07-22T00:00:11;101267.69;;;21.65;72.20
67029;BME280;53934;52.142;11.738;2022-07-22T00:02:37;101271.63;;;21.71;71.89
67029;BME280;53934;52.142;11.738;2022-07-22T00:05:05;101280.47;;;21.81;71.84
67029;BME280;53934;52.142;11.738;2022-07-22T00:07:33;101274.91;;;22.03;70.87
67029;BME280;53934;52.142;11.738;2022-07-22T00:09:59;101270.69;;;22.10;70.53
67029;BME280;53934;52.142;11.738;2022-07-22T00:12:26;101282.78;;;22.14;70.22
67029;BME280;53934;52.142;11.738;2022-07-22T00:14:52;101272.41;;;22.11;70.59
67029;BME280;53934;52.142;11.738;2022-07-22T00:17:18;101280.25;;;21.94;70.93
67029;BME280;53934;52.142;11.738;2022-07-22T00:19:45;101285.97;;;21.79;71.64
67029;BME280;53934;52.142;11.738;2022-07-22T00:22:11;101285.13;;;21.79;71.31
67029;BME280;53934;52.142;11.738;2022-07-22T00:24:39;101291.31;;;21.79;71.30
67029;BME280;53934;52.142;11.738;2022-07-22T00:27:05;101281.91;;;21.75;71.62
67029;BME280;53934;52.142;11.738;2022-07-22T00:29:32;101278.25;;;21.86;71.21
67029;BME280;53934;52.142;11.738;2022-07-22T00:31:58;101294.41;;;21.75;71.39
67029;BME280;53934;52.142;11.738;2022-07-22T00:34:25;101288.22;;;21.74;71.50
67029;BME280;53934;52.142;11.738;2022-07-22T00:36:51;101289.66;;;21.39;72.71
67029;BME280;53934;52.142;11.738;2022-07-22T00:39:17;101290.09;;;21.44;72.59
67029;BME280;53934;52.142;11.738;2022-07-22T00:41:45;101295.88;;;21.18;72.94
67029;BME280;53934;52.142;11.738;2022-07-22T00:44:11;101292.66;;;21.15;73.86
67029;BME280;53934;52.142;11.738;2022-07-22T00:46:38;101287.53;;;21.32;73.44
67029;BME280;53934;52.142;11.738;2022-07-22T00:49:06;101289.44;;;21.61;72.56
67029;BME280;53934;52.142;11.738;2022-07-22T00:51:33;101279.41;;;21.34;72.59
67029;BME280;53934;52.142;11.738;2022-07-22T00:54:01;101277.88;;;21.11;73.21
67029;BME280;53934;52.142;11.738;2022-07-22T00:56:28;101283.81;;;20.94;74.61
67029;BME280;53934;52.142;11.738;2022-07-22T00:58:58;101283.09;;;20.92;74.31
67029;BME280;53934;52.142;11.738;2022-07-22T01:01:26;101273.75;;;21.27;73.33
67029;BME280;53934;52.142;11.738;2022-07-22T01:03:52;101285.69;;;21.23;73.29
67029;BME280;53934;52.142;11.738;2022-07-22T01:06:19;101278.69;;;21.32;72.54
67029;BME280;53934;52.142;11.738;2022-07-22T01:08:45;101276.44;;;21.37;72.40
67029;BME280;53934;52.142;11.738;2022-07-22T01:11:14;101281.78;;;21.37;72.03
67029;BME280;53934;52.142;11.738;2022-07-22T01:13:41;101279.31;;;21.15;72.92
67029;BME280;53934;52.142;11.738;2022-07-22T01:16:10;101273.19;;;21.24;72.81
67029;BME280;53934;52.142;11.738;2022-07-22T01:18:38;101270.25;;;21.27;72.83
67029;BME280;53934;52.142;11.738;2022-07-22T01:21:06;101272.25;;;21.44;72.40
67029;BME280;53934;52.142;11.738;2022-07-22T01:23:33;101273.97;;;21.45;71.91
67029;BME280;53934;52.142;11.738;2022-07-22T01:26:00;101272.81;;;21.38;72.21
67029;BME280;53934;52.142;11.738;2022-07-22T01:28:28;101279.88;;;21.49;71.43
67029;BME280;53934;52.142;11.738;2022-07-22T01:30:54;101281.00;;;21.46;71.79
67029;BME280;53934;52.142;11.738;2022-07-22T01:33:21;101275.25;;;21.60;71.22
67029;BME280;53934;52.142;11.738;2022-07-22T01:35:48;101274.97;;;21.63;71.04
67029;BME280;53934;52.142;11.738;2022-07-22T01:38:17;101272.59;;;21.60;70.93
67029;BME280;53934;52.142;11.738;2022-07-22T01:40:45;101269.81;;;21.71;70.74
67029;BME280;53934;52.142;11.738;2022-07-22T01:43:11;101276.50;;;21.47;71.17
67029;BME280;53934;52.142;11.738;2022-07-22T01:45:41;101276.00;;;21.72;70.53
67029;BME280;53934;52.142;11.738;2022-07-22T01:48:07;101271.78;;;21.79;70.04
67029;BME280;53934;52.142;11.738;2022-07-22T01:50:33;101277.25;;;21.77;70.42
67029;BME280;53934;52.142;11.738;2022-07-22T01:53:00;101274.25;;;21.52;71.18
67029;BME280;53934;52.142;11.738;2022-07-22T01:55:27;101272.78;;;21.88;70.14
67029;BME280;53934;52.142;11.738;2022-07-22T01:57:54;101274.34;;;22.00;69.33
67029;BME280;53934;52.142;11.738;2022-07-22T02:00:20;101277.53;;;21.74;70.17
67029;BME280;53934;52.142;11.738;2022-07-22T02:02:47;101280.59;;;21.70;70.30
67029;BME280;53934;52.142;11.738;2022-07-22T02:05:13;101283.53;;;21.57;70.89
67029;BME280;53934;52.142;11.738;2022-07-22T02:07:40;101278.78;;;21.21;72.33
67029;BME280;53934;52.142;11.738;2022-07-22T02:10:07;101278.13;;;21.28;71.99
67029;BME280;53934;52.142;11.738;2022-07-22T02:12:35;101282.69;;;21.57;71.16
67029;BME280;53934;52.142;11.738;2022-07-22T02:15:02;101276.97;;;21.80;69.90
67029;BME280;53934;52.142;11.738;2022-07-22T02:17:28;101271.28;;;22.04;69.36
67029;BME280;53934;52.142;11.738;2022-07-22T02:19:55;101263.13;;;22.15;68.66
67029;BME280;53934;52.142;11.738;2022-07-22T02:22:21;101267.75;;;21.94;69.08
67029;BME280;53934;52.142;11.738;2022-07-22T02:24:47;101276.97;;;21.61;70.09
67029;BME280;53934;52.142;11.738;2022-07-22T02:27:14;101277.25;;;21.68;69.93
67029;BME280;53934;52.142;11.738;2022-07-22T02:29:42;101264.97;;;22.05;68.84
67029;BME280;53934;52.142;11.738;2022-07-22T02:32:08;101266.50;;;21.98;68.94
67029;BME280;53934;52.142;11.738;2022-07-22T02:34:34;101266.19;;;21.92;69.35
67029;BME280;53934;52.142;11.738;2022-07-22T02:37:01;101272.19;;;21.65;69.97
67029;BME280;53934;52.142;11.738;2022-07-22T02:39:27;101271.75;;;21.60;69.53
67029;BME280;53934;52.142;11.738;2022-07-22T02:41:54;101271.41;;;21.44;70.49
67029;BME280;53934;52.142;11.738;2022-07-22T02:44:20;101280.59;;;21.70;69.56
67029;BME280;53934;52.142;11.738;2022-07-22T02:46:48;101273.88;;;21.75;69.34
67029;BME280;53934;52.142;11.738;2022-07-22T02:49:14;101269.53;;;21.84;68.66
67029;BME280;53934;52.142;11.738;2022-07-22T02:51:41;101269.00;;;21.90;68.58
67029;BME280;53934;52.142;11.738;2022-07-22T02:54:07;101279.38;;;21.83;68.97
67029;BME280;53934;52.142;11.738;2022-07-22T02:56:33;101278.63;;;21.62;69.89
67029;BME280;53934;52.142;11.738;2022-07-22T02:59:00;101267.09;;;21.62;69.51
67029;BME280;53934;52.142;11.738;2022-07-22T03:01:26;101268.09;;;21.61;69.39
67029;BME280;53934;52.142;11.738;2022-07-22T03:03:54;101266.50;;;21.98;68.51
67029;BME280;53934;52.142;11.738;2022-07-22T03:06:20;101270.78;;;21.61;69.22
67029;BME280;53934;52.142;11.738;2022-07-22T03:08:47;101269.84;;;21.31;70.54
67029;BME280;53934;52.142;11.738;2022-07-22T03:11:13;101268.16;;;21.30;70.38
67029;BME280;53934;52.142;11.738;2022-07-22T03:13:39;101272.38;;;21.33;70.10
67029;BME280;53934;52.142;11.738;2022-07-22T03:16:06;101273.38;;;21.32;70.12
67029;BME280;53934;52.142;11.738;2022-07-22T03:18:33;101277.41;;;21.26;70.09
67029;BME280;53934;52.142;11.738;2022-07-22T03:21:01;101272.63;;;21.20;70.56
67029;BME280;53934;52.142;11.738;2022-07-22T03:23:27;101273.69;;;21.48;69.33
67029;BME280;53934;52.142;11.738;2022-07-22T03:25:54;101268.16;;;21.40;69.84
67029;BME280;53934;52.142;11.738;2022-07-22T03:28:21;101268.09;;;21.61;69.29
67029;BME280;53934;52.142;11.738;2022-07-22T03:30:47;101264.19;;;21.65;68.88
67029;BME280;53934;52.142;11.738;2022-07-22T03:33:14;101277.19;;;21.49;69.72
67029;BME280;53934;52.142;11.738;2022-07-22T03:35:40;101272.19;;;21.84;68.31
67029;BME280;53934;52.142;11.738;2022-07-22T03:38:08;101275.38;;;21.49;69.62
67029;BME280;53934;52.142;11.738;2022-07-22T03:40:34;101283.97;;;21.22;70.66
67029;BME280;53934;52.142;11.738;2022-07-22T03:43:00;101273.25;;;21.43;70.13
67029;BME280;53934;52.142;11.738;2022-07-22T03:45:27;101282.81;;;21.55;69.32
67029;BME280;53934;52.142;11.738;2022-07-22T03:47:53;101272.31;;;21.54;69.16
67029;BME280;53934;52.142;11.738;2022-07-22T03:50:23;101269.66;;;21.73;68.83
67029;BME280;53934;52.142;11.738;2022-07-22T03:52:49;101268.22;;;21.59;69.28
67029;BME280;53934;52.142;11.738;2022-07-22T03:55:17;101272.53;;;21.51;69.68
67029;BME280;53934;52.142;11.738;2022-07-22T03:57:43;101270.78;;;21.70;69.10
67029;BME280;53934;52.142;11.738;2022-07-22T04:00:10;101276.81;;;21.63;69.05
67029;BME280;53934;52.142;11.738;2022-07-22T04:02:36;101272.53;;;21.91;68.38
67029;BME280;53934;52.142;11.738;2022-07-22T04:05:03;101272.81;;;22.07;67.36
67029;BME280;53934;52.142;11.738;2022-07-22T04:07:30;101273.25;;;22.12;67.81
67029;BME280;53934;52.142;11.738;2022-07-22T04:09:56;101274.75;;;22.43;66.82
67029;BME280;53934;52.142;11.738;2022-07-22T04:12:31;101277.03;;;22.00;67.56
67029;BME280;53934;52.142;11.738;2022-07-22T04:14:58;101264.41;;;22.02;67.67
67029;BME280;53934;52.142;11.738;2022-07-22T04:17:24;101276.69;;;21.74;68.43
67029;BME280;53934;52.142;11.738;2022-07-22T04:19:51;101282.88;;;21.84;68.17
67029;BME280;53934;52.142;11.738;2022-07-22T04:22:18;101275.75;;;22.04;67.43
67029;BME280;53934;52.142;11.738;2022-07-22T04:24:44;101287.28;;;22.04;67.11
67029;BME280;53934;52.142;11.738;2022-07-22T04:27:10;101285.06;;;21.50;69.74
67029;BME280;53934;52.142;11.738;2022-07-22T04:29:38;101292.06;;;21.11;70.98
67029;BME280;53934;52.142;11.738;2022-07-22T04:32:05;101288.78;;;21.28;70.78
67029;BME280;53934;52.142;11.738;2022-07-22T04:34:31;101298.47;;;21.29;71.28
67029;BME280;53934;52.142;11.738;2022-07-22T04:36:58;101297.75;;;21.58;70.17
67029;BME280;53934;52.142;11.738;2022-07-22T04:39:24;101289.00;;;21.16;71.69
67029;BME280;53934;52.142;11.738;2022-07-22T04:41:51;101291.72;;;21.05;72.42
67029;BME280;53934;52.142;11.738;2022-07-22T04:44:17;101301.94;;;21.00;73.08
67029;BME280;53934;52.142;11.738;2022-07-22T04:46:45;101302.25;;;21.27;71.72
67029;BME280;53934;52.142;11.738;2022-07-22T04:49:11;101299.75;;;21.35;71.15
67029;BME280;53934;52.142;11.738;2022-07-22T04:51:37;101293.78;;;21.52;70.18
67029;BME280;53934;52.142;11.738;2022-07-22T04:54:04;101298.97;;;21.94;69.09
67029;BME280;53934;52.142;11.738;2022-07-22T04:56:30;101288.22;;;21.84;68.83
67029;BME280;53934;52.142;11.738;2022-07-22T04:58:56;101289.41;;;22.20;67.57
67029;BME280;53934;52.142;11.738;2022-07-22T05:01:23;101290.53;;;22.27;67.68
67029;BME280;53934;52.142;11.738;2022-07-22T05:03:50;101289.13;;;22.13;67.59
67029;BME280;53934;52.142;11.738;2022-07-22T05:06:17;101291.94;;;22.31;67.46
67029;BME280;53934;52.142;11.738;2022-07-22T05:08:44;101289.81;;;22.54;66.50
67029;BME280;53934;52.142;11.738;2022-07-22T05:11:10;101292.19;;;22.57;66.62
67029;BME280;53934;52.142;11.738;2022-07-22T05:13:37;101297.81;;;22.63;66.51
67029;BME280;53934;52.142;11.738;2022-07-22T05:16:04;101298.88;;;22.99;65.42
67029;BME280;53934;52.142;11.738;2022-07-22T05:18:31;101291.38;;;23.12;64.54
67029;BME280;53934;52.142;11.738;2022-07-22T05:20:59;101299.47;;;23.30;64.21
67029;BME280;53934;52.142;11.738;2022-07-22T05:23:25;101288.53;;;23.51;63.52
67029;BME280;53934;52.142;11.738;2022-07-22T05:25:51;101296.72;;;23.40;63.43
67029;BME280;53934;52.142;11.738;2022-07-22T05:28:18;101293.31;;;23.57;63.43
67029;BME280;53934;52.142;11.738;2022-07-22T05:30:45;101289.16;;;24.07;62.37
67029;BME280;53934;52.142;11.738;2022-07-22T05:33:11;101289.94;;;24.17;61.76
67029;BME280;53934;52.142;11.738;2022-07-22T05:35:37;101290.19;;;24.24;61.75
67029;BME280;53934;52.142;11.738;2022-07-22T05:38:05;101301.25;;;24.47;61.09
67029;BME280;53934;52.142;11.738;2022-07-22T05:40:32;101300.13;;;24.93;59.59
67029;BME280;53934;52.142;11.738;2022-07-22T05:42:58;101296.28;;;24.52;60.20
67029;BME280;53934;52.142;11.738;2022-07-22T05:45:25;101298.06;;;24.26;60.31
67029;BME280;53934;52.142;11.738;2022-07-22T05:47:51;101288.16;;;24.08;61.50
67029;BME280;53934;52.142;11.738;2022-07-22T05:50:17;101300.53;;;24.19;62.15
67029;BME280;53934;52.142;11.738;2022-07-22T05:52:44;101305.00;;;23.83;62.68
67029;BME280;53934;52.142;11.738;2022-07-22T05:55:11;101311.78;;;23.50;64.17
67029;BME280;53934;52.142;11.738;2022-07-22T05:57:38;101315.75;;;23.73;62.65
67029;BME280;53934;52.142;11.738;2022-07-22T06:00:05;101312.22;;;23.73;62.98
67029;BME280;53934;52.142;11.738;2022-07-22T06:02:32;101320.50;;;23.15;64.06
67029;BME280;53934;52.142;11.738;2022-07-22T06:04:58;101317.34;;;22.93;65.52
67029;BME280;53934;52.142;11.738;2022-07-22T06:07:25;101320.25;;;23.09;65.21
67029;BME280;53934;52.142;11.738;2022-07-22T06:09:52;101320.16;;;22.91;66.03
67029;BME280;53934;52.142;11.738;2022-07-22T06:12:19;101321.84;;;22.92;66.07
67029;BME280;53934;52.142;11.738;2022-07-22T06:14:46;101318.78;;;22.87;65.92
67029;BME280;53934;52.142;11.738;2022-07-22T06:17:12;101328.06;;;22.45;67.53
67029;BME280;53934;52.142;11.738;2022-07-22T06:19:39;101332.16;;;22.29;69.20
67029;BME280;53934;52.142;11.738;2022-07-22T06:22:05;101326.09;;;22.18;69.56
67029;BME280;53934;52.142;11.738;2022-07-22T06:24:31;101342.53;;;22.32;68.69
67029;BME280;53934;52.142;11.738;2022-07-22T06:26:58;101340.16;;;22.49;68.34
67029;BME280;53934;52.142;11.738;2022-07-22T06:29:25;101336.22;;;22.62;68.15
67029;BME280;53934;52.142;11.738;2022-07-22T06:31:52;101333.13;;;22.28;69.29
67029;BME280;53934;52.142;11.738;2022-07-22T06:34:18;101338.47;;;22.28;69.49
67029;BME280;53934;52.142;11.738;2022-07-22T06:36:45;101343.94;;;22.08;70.65
67029;BME280;53934;52.142;11.738;2022-07-22T06:39:11;101337.34;;;22.21;69.86
67029;BME280;53934;52.142;11.738;2022-07-22T06:41:37;101357.59;;;21.65;72.07
67029;BME280;53934;52.142;11.738;2022-07-22T06:44:04;101343.81;;;21.69;72.15
67029;BME280;53934;52.142;11.738;2022-07-22T06:46:32;101347.50;;;21.78;72.01
67029;BME280;53934;52.142;11.738;2022-07-22T06:48:58;101339.16;;;22.11;70.09
67029;BME280;53934;52.142;11.738;2022-07-22T06:51:25;101340.44;;;22.26;70.29
67029;BME280;53934;52.142;11.738;2022-07-22T06:53:51;101354.94;;;22.24;70.93
67029;BME280;53934;52.142;11.738;2022-07-22T06:56:17;101351.53;;;22.22;70.98
67029;BME280;53934;52.142;11.738;2022-07-22T06:58:43;101356.94;;;21.82;72.33
67029;BME280;53934;52.142;11.738;2022-07-22T07:01:10;101351.50;;;21.93;72.34
67029;BME280;53934;52.142;11.738;2022-07-22T07:03:38;101350.69;;;22.12;72.19
67029;BME280;53934;52.142;11.738;2022-07-22T07:06:07;101355.63;;;22.26;70.68
67029;BME280;53934;52.142;11.738;2022-07-22T07:08:33;101350.44;;;22.53;69.71
67029;BME280;53934;52.142;11.738;2022-07-22T07:10:59;101353.13;;;22.72;68.98
67029;BME280;53934;52.142;11.738;2022-07-22T07:13:26;101355.19;;;22.98;68.34
67029;BME280;53934;52.142;11.738;2022-07-22T07:15:52;101351.13;;;22.84;68.27
67029;BME280;53934;52.142;11.738;2022-07-22T07:18:18;101348.13;;;23.16;66.74
67029;BME280;53934;52.142;11.738;2022-07-22T07:20:46;101351.09;;;23.03;66.95
67029;BME280;53934;52.142;11.738;2022-07-22T07:23:13;101356.16;;;23.06;67.39
67029;BME280;53934;52.142;11.738;2022-07-22T07:25:40;101356.00;;;23.08;66.73
67029;BME280;53934;52.142;11.738;2022-07-22T07:28:06;101360.31;;;22.72;67.18
67029;BME280;53934;52.142;11.738;2022-07-22T07:30:33;101354.19;;;22.99;64.95
67029;BME280;53934;52.142;11.738;2022-07-22T07:32:59;101356.47;;;22.55;66.26
67029;BME280;53934;52.142;11.738;2022-07-22T07:35:27;101354.66;;;22.27;67.20
67029;BME280;53934;52.142;11.738;2022-07-22T07:37:54;101364.47;;;22.07;67.78
67029;BME280;53934;52.142;11.738;2022-07-22T07:42:47;101363.78;;;22.44;67.14
67029;BME280;53934;52.142;11.738;2022-07-22T07:45:13;101365.91;;;22.50;67.02
67029;BME280;53934;52.142;11.738;2022-07-22T07:47:40;101371.09;;;22.99;64.84
67029;BME280;53934;52.142;11.738;2022-07-22T07:50:07;101369.13;;;23.01;64.46
67029;BME280;53934;52.142;11.738;2022-07-22T07:52:37;101366.91;;;23.34;64.38
67029;BME280;53934;52.142;11.738;2022-07-22T07:55:07;101370.47;;;23.61;63.45
67029;BME280;53934;52.142;11.738;2022-07-22T07:57:34;101368.13;;;23.86;62.04
67029;BME280;53934;52.142;11.738;2022-07-22T08:00:01;101367.66;;;23.63;63.23
67029;BME280;53934;52.142;11.738;2022-07-22T08:02:27;101375.16;;;23.87;62.89
67029;BME280;53934;52.142;11.738;2022-07-22T08:04:53;101371.50;;;24.33;61.49
67029;BME280;53934;52.142;11.738;2022-07-22T08:07:20;101376.63;;;24.26;61.56
67029;BME280;53934;52.142;11.738;2022-07-22T08:09:46;101377.00;;;24.13;61.62
67029;BME280;53934;52.142;11.738;2022-07-22T08:12:17;101381.22;;;24.06;61.29
67029;BME280;53934;52.142;11.738;2022-07-22T08:14:44;101382.47;;;23.94;61.45
67029;BME280;53934;52.142;11.738;2022-07-22T08:17:10;101378.84;;;24.31;60.06
67029;BME280;53934;52.142;11.738;2022-07-22T08:19:37;101379.25;;;24.08;61.22
67029;BME280;53934;52.142;11.738;2022-07-22T08:22:03;101377.69;;;24.15;60.25
67029;BME280;53934;52.142;11.738;2022-07-22T08:24:29;101382.53;;;24.30;59.79
67029;BME280;53934;52.142;11.738;2022-07-22T08:26:56;101386.41;;;24.17;61.73
67029;BME280;53934;52.142;11.738;2022-07-22T08:29:23;101389.69;;;24.11;61.06
67029;BME280;53934;52.142;11.738;2022-07-22T08:31:50;101392.06;;;24.14;60.74
67029;BME280;53934;52.142;11.738;2022-07-22T08:34:17;101411.22;;;23.92;61.34
67029;BME280;53934;52.142;11.738;2022-07-22T08:36:43;101393.91;;;23.59;62.48
67029;BME280;53934;52.142;11.738;2022-07-22T08:39:10;101399.81;;;23.63;63.45
67029;BME280;53934;52.142;11.738;2022-07-22T08:41:37;101411.66;;;23.60;62.89
67029;BME280;53934;52.142;11.738;2022-07-22T08:44:06;101410.22;;;23.66;63.06
67029;BME280;53934;52.142;11.738;2022-07-22T08:46:34;101409.53;;;23.64;62.25
67029;BME280;53934;52.142;11.738;2022-07-22T08:49:02;101408.88;;;23.52;62.81
67029;BME280;53934;52.142;11.738;2022-07-22T08:51:28;101405.50;;;23.77;62.62
67029;BME280;53934;52.142;11.738;2022-07-22T08:53:55;101411.00;;;24.03;61.47
67029;BME280;53934;52.142;11.738;2022-07-22T08:56:22;101409.72;;;24.35;61.04
67029;BME280;53934;52.142;11.738;2022-07-22T08:58:48;101406.19;;;24.34;60.80
67029;BME280;53934;52.142;11.738;2022-07-22T09:01:16;101406.75;;;24.38;59.75
67029;BME280;53934;52.142;11.738;2022-07-22T09:03:46;101413.00;;;24.99;57.18
67029;BME280;53934;52.142;11.738;2022-07-22T09:06:14;101400.44;;;25.00;58.68
67029;BME280;53934;52.142;11.738;2022-07-22T09:08:52;101400.69;;;24.89;57.72
67029;BME280;53934;52.142;11.738;2022-07-22T09:11:20;101397.88;;;25.16;55.09
67029;BME280;53934;52.142;11.738;2022-07-22T09:13:47;101394.69;;;25.20;55.32
67029;BME280;53934;52.142;11.738;2022-07-22T09:16:14;101402.41;;;25.15;55.25
67029;BME280;53934;52.142;11.738;2022-07-22T09:18:52;101407.28;;;24.94;55.08
67029;BME280;53934;52.142;11.738;2022-07-22T09:21:20;101398.16;;;25.13;56.51
67029;BME280;53934;52.142;11.738;2022-07-22T09:23:47;101403.59;;;24.95;55.75
67029;BME280;53934;52.142;11.738;2022-07-22T09:26:29;101404.38;;;25.13;55.41
67029;BME280;53934;52.142;11.738;2022-07-22T09:28:56;101395.19;;;25.42;54.66
67029;BME280;53934;52.142;11.738;2022-07-22T09:31:24;101399.25;;;25.46;55.11
67029;BME280;53934;52.142;11.738;2022-07-22T09:33:52;101390.81;;;25.41;54.53
67029;BME280;53934;52.142;11.738;2022-07-22T09:36:20;101394.63;;;25.56;52.27
67029;BME280;53934;52.142;11.738;2022-07-22T09:38:46;101393.34;;;25.68;52.31
67029;BME280;53934;52.142;11.738;2022-07-22T09:41:12;101401.44;;;25.50;50.87
67029;BME280;53934;52.142;11.738;2022-07-22T09:43:40;101396.31;;;25.65;52.14
67029;BME280;53934;52.142;11.738;2022-07-22T09:46:06;101399.63;;;26.27;50.76
67029;BME280;53934;52.142;11.738;2022-07-22T09:48:33;101400.81;;;26.40;50.05
67029;BME280;53934;52.142;11.738;2022-07-22T09:51:01;101405.19;;;26.66;49.45
67029;BME280;53934;52.142;11.738;2022-07-22T09:53:29;101396.66;;;26.86;48.23
67029;BME280;53934;52.142;11.738;2022-07-22T09:55:56;101410.75;;;27.21;47.83
67029;BME280;53934;52.142;11.738;2022-07-22T09:58:23;101416.13;;;27.53;47.43
67029;BME280;53934;52.142;11.738;2022-07-22T10:00:51;101408.81;;;27.70;44.71
67029;BME280;53934;52.142;11.738;2022-07-22T10:03:21;101414.84;;;27.72;47.53
67029;BME280;53934;52.142;11.738;2022-07-22T10:05:50;101414.22;;;27.62;47.24
67029;BME280;53934;52.142;11.738;2022-07-22T10:08:18;101403.66;;;27.91;46.65
67029;BME280;53934;52.142;11.738;2022-07-22T10:10:45;101415.03;;;27.70;44.16
67029;BME280;53934;52.142;11.738;2022-07-22T10:13:11;101413.41;;;27.53;46.44
67029;BME280;53934;52.142;11.738;2022-07-22T10:15:38;101406.22;;;27.21;44.54
67029;BME280;53934;52.142;11.738;2022-07-22T10:18:07;101415.47;;;27.27;47.42
67029;BME280;53934;52.142;11.738;2022-07-22T10:20:35;101416.75;;;27.63;46.37
67029;BME280;53934;52.142;11.738;2022-07-22T10:23:03;101409.44;;;27.72;44.70
67029;BME280;53934;52.142;11.738;2022-07-22T10:25:32;101413.84;;;27.65;44.81
67029;BME280;53934;52.142;11.738;2022-07-22T10:28:21;101396.56;;;27.35;45.12
67029;BME280;53934;52.142;11.738;2022-07-22T10:30:48;101405.41;;;26.96;47.95
67029;BME280;53934;52.142;11.738;2022-07-22T10:33:16;101402.88;;;27.11;48.35
67029;BME280;53934;52.142;11.738;2022-07-22T10:35:54;101396.06;;;27.55;45.87
67029;BME280;53934;52.142;11.738;2022-07-22T10:38:21;101404.63;;;27.59;47.54
67029;BME280;53934;52.142;11.738;2022-07-22T10:40:51;101395.69;;;27.67;45.37
67029;BME280;53934;52.142;11.738;2022-07-22T10:43:18;101402.06;;;27.66;45.15
67029;BME280;53934;52.142;11.738;2022-07-22T10:45:47;101397.59;;;27.42;46.32
67029;BME280;53934;52.142;11.738;2022-07-22T10:48:17;101395.09;;;27.79;44.40
67029;BME280;53934;52.142;11.738;2022-07-22T10:53:40;101394.09;;;28.42;44.84
67029;BME280;53934;52.142;11.738;2022-07-22T10:56:14;101403.00;;;28.20;43.74
67029;BME280;53934;52.142;11.738;2022-07-22T10:58:49;101394.59;;;27.84;43.77
67029;BME280;53934;52.142;11.738;2022-07-22T11:01:19;101387.19;;;28.17;44.86
67029;BME280;53934;52.142;11.738;2022-07-22T11:03:47;101382.34;;;28.35;45.30
67029;BME280;53934;52.142;11.738;2022-07-22T11:06:16;101390.06;;;28.69;45.14
67029;BME280;53934;52.142;11.738;2022-07-22T11:08:43;101380.72;;;28.94;44.38
67029;BME280;53934;52.142;11.738;2022-07-22T11:11:12;101387.28;;;28.54;43.37
67029;BME280;53934;52.142;11.738;2022-07-22T11:13:40;101385.78;;;28.29;43.85
67029;BME280;53934;52.142;11.738;2022-07-22T11:16:17;101386.72;;;27.74;44.08
67029;BME280;53934;52.142;11.738;2022-07-22T11:18:45;101390.25;;;27.20;45.69
67029;BME280;53934;52.142;11.738;2022-07-22T11:21:14;101384.88;;;27.12;46.20
67029;BME280;53934;52.142;11.738;2022-07-22T11:23:40;101388.53;;;27.82;47.33
67029;BME280;53934;52.142;11.738;2022-07-22T11:26:08;101385.41;;;28.32;46.43
67029;BME280;53934;52.142;11.738;2022-07-22T11:28:39;101375.44;;;28.86;45.26
67029;BME280;53934;52.142;11.738;2022-07-22T11:31:06;101383.47;;;28.48;42.87
67029;BME280;53934;52.142;11.738;2022-07-22T11:33:32;101390.78;;;28.09;41.82
67029;BME280;53934;52.142;11.738;2022-07-22T11:36:03;101390.41;;;28.43;43.79
67029;BME280;53934;52.142;11.738;2022-07-22T11:38:45;101390.34;;;28.51;41.97
67029;BME280;53934;52.142;11.738;2022-07-22T11:41:12;101396.66;;;29.41;44.61
67029;BME280;53934;52.142;11.738;2022-07-22T11:43:41;101390.69;;;29.75;41.85
67029;BME280;53934;52.142;11.738;2022-07-22T11:46:08;101389.31;;;29.12;40.92
67029;BME280;53934;52.142;11.738;2022-07-22T11:48:34;101386.22;;;28.10;43.50
67029;BME280;53934;52.142;11.738;2022-07-22T11:51:03;101392.63;;;28.09;43.98
67029;BME280;53934;52.142;11.738;2022-07-22T11:53:30;101383.75;;;28.00;43.69
67029;BME280;53934;52.142;11.738;2022-07-22T11:55:57;101380.84;;;28.10;43.61
67029;BME280;53934;52.142;11.738;2022-07-22T11:58:42;101387.47;;;27.91;44.84
67029;BME280;53934;52.142;11.738;2022-07-22T12:01:10;101387.09;;;27.71;44.46
67029;BME280;53934;52.142;11.738;2022-07-22T12:03:40;101378.75;;;27.89;43.42
67029;BME280;53934;52.142;11.738;2022-07-22T12:06:09;101375.81;;;27.68;43.20
67029;BME280;53934;52.142;11.738;2022-07-22T12:08:40;101380.34;;;27.67;46.49
67029;BME280;53934;52.142;11.738;2022-07-22T12:11:09;101379.72;;;27.96;45.28
67029;BME280;53934;52.142;11.738;2022-07-22T12:13:36;101376.69;;;28.30;44.30
67029;BME280;53934;52.142;11.738;2022-07-22T12:16:22;101377.97;;;28.57;44.11
67029;BME280;53934;52.142;11.738;2022-07-22T12:18:55;101389.22;;;28.68;43.08
67029;BME280;53934;52.142;11.738;2022-07-22T12:21:22;101388.06;;;28.40;42.01
67029;BME280;53934;52.142;11.738;2022-07-22T12:23:51;101385.06;;;28.35;42.92
67029;BME280;53934;52.142;11.738;2022-07-22T12:26:18;101385.78;;;28.29;42.62
67029;BME280;53934;52.142;11.738;2022-07-22T12:28:45;101377.84;;;27.96;43.38
67029;BME280;53934;52.142;11.738;2022-07-22T12:31:12;101380.19;;;27.61;43.78
67029;BME280;53934;52.142;11.738;2022-07-22T12:33:47;101385.19;;;27.72;42.76
67029;BME280;53934;52.142;11.738;2022-07-22T12:36:14;101386.28;;;27.54;43.29
67029;BME280;53934;52.142;11.738;2022-07-22T12:38:40;101391.56;;;27.24;43.53
67029;BME280;53934;52.142;11.738;2022-07-22T12:41:27;101391.75;;;27.06;44.38
67029;BME280;53934;52.142;11.738;2022-07-22T12:43:55;101387.91;;;27.00;46.08
67029;BME280;53934;52.142;11.738;2022-07-22T12:46:21;101385.00;;;27.18;43.57